createdAt,value
2023-05-16T00:00:03.364Z,10.50
2023-05-16T00:00:33.973Z,10.50
2023-05-16T00:01:04.298Z,10.50
2023-05-16T00:01:35.584Z,10.50
2023-05-16T00:02:42.465Z,10.50
2023-05-16T00:03:08.981Z,10.50
2023-05-16T00:04:15.592Z,10.50
2023-05-16T00:04:32.299Z,10.50
2023-05-16T00:05:03.979Z,10.50
2023-05-16T00:05:34.291Z,10.40
2023-05-16T00:06:05.479Z,10.40
2023-05-16T00:06:36.449Z,10.40
2023-05-16T00:07:08.073Z,10.40
2023-05-16T00:07:38.264Z,10.40
2023-05-16T00:08:09.608Z,10.40
2023-05-16T00:08:40.454Z,10.40
2023-05-16T00:09:11.515Z,10.40
2023-05-16T00:09:42.367Z,10.40
2023-05-16T00:10:13.408Z,10.40
2023-05-16T00:10:43.864Z,10.40
2023-05-16T00:11:33.045Z,10.40
2023-05-16T00:11:46.298Z,10.40
2023-05-16T00:12:17.540Z,10.40
2023-05-16T00:12:49.389Z,10.40
2023-05-16T00:13:24.693Z,10.40
2023-05-16T00:14:50.998Z,10.40
2023-05-16T00:20:05.854Z,10.50
2023-05-16T00:20:35.827Z,10.50
2023-05-16T00:21:23.807Z,10.50
2023-05-16T00:21:36.727Z,10.50
2023-05-16T00:22:06.928Z,10.50
2023-05-16T00:22:37.979Z,10.50
2023-05-16T00:23:10.442Z,10.50
2023-05-16T00:23:39.348Z,10.50
2023-05-16T00:24:10.424Z,10.50
2023-05-16T00:24:42.789Z,10.50
2023-05-16T00:25:14.274Z,10.50
2023-05-16T00:30:02.092Z,10.40
2023-05-16T00:30:33.711Z,10.40
2023-05-16T00:30:57.461Z,10.40
2023-05-16T00:31:29.853Z,10.40
2023-05-16T00:31:55.897Z,10.40
2023-05-16T00:32:26.746Z,10.40
2023-05-16T00:32:57.935Z,10.40
2023-05-16T00:34:09.679Z,10.40
2023-05-16T00:34:31.250Z,10.40
2023-05-16T00:35:02.570Z,10.40
2023-05-16T00:35:33.326Z,10.40
2023-05-16T00:36:04.031Z,10.40
2023-05-16T00:36:35.560Z,10.40
2023-05-16T00:37:06.380Z,10.40
2023-05-16T00:37:41.727Z,10.40
2023-05-16T00:38:08.593Z,10.40
2023-05-16T00:38:39.288Z,10.40
2023-05-16T00:39:43.759Z,10.30
2023-05-16T00:40:40.492Z,10.30
2023-05-16T00:41:14.884Z,10.30
2023-05-16T00:41:46.625Z,10.30
2023-05-16T00:42:50.014Z,10.30
2023-05-16T00:43:17.626Z,10.30
2023-05-16T00:43:50.719Z,10.30
2023-05-16T00:44:19.624Z,10.30
2023-05-16T00:44:51.001Z,10.30
2023-05-16T00:45:22.596Z,10.30
2023-05-16T00:45:52.353Z,10.30
2023-05-16T00:46:23.830Z,10.30
2023-05-16T00:46:54.597Z,10.30
2023-05-16T00:47:26.096Z,10.30
2023-05-16T00:47:56.996Z,10.40
2023-05-16T00:48:28.591Z,10.40
2023-05-16T00:48:59.019Z,10.40
2023-05-16T00:49:29.384Z,10.40
2023-05-16T00:50:00.307Z,10.40
2023-05-16T00:50:31.462Z,10.40
2023-05-16T00:51:02.930Z,10.40
2023-05-16T00:51:36.366Z,10.40
2023-05-16T00:52:05.504Z,10.40
2023-05-16T00:52:35.634Z,10.40
2023-05-16T00:53:06.638Z,10.40
2023-05-16T00:53:37.496Z,10.40
2023-05-16T00:54:08.422Z,10.40
2023-05-16T00:54:39.270Z,10.40
2023-05-16T00:55:10.674Z,10.40
2023-05-16T00:55:42.857Z,10.40
2023-05-16T00:56:12.640Z,10.40
2023-05-16T00:56:43.433Z,10.40
2023-05-16T00:57:14.852Z,10.40
2023-05-16T00:57:45.999Z,10.40
2023-05-16T00:58:16.360Z,10.40
2023-05-16T00:58:47.283Z,10.40
2023-05-16T00:59:18.964Z,10.30
2023-05-16T00:59:49.342Z,10.30
2023-05-16T01:00:21.768Z,10.30
2023-05-16T01:00:51.382Z,10.30
2023-05-16T01:01:22.685Z,10.30
2023-05-16T01:01:53.671Z,10.30
2023-05-16T01:02:24.636Z,10.30
2023-05-16T01:02:56.018Z,10.30
2023-05-16T01:03:26.926Z,10.20
2023-05-16T01:03:57.539Z,10.20
2023-05-16T01:04:28.403Z,10.20
2023-05-16T01:04:59.837Z,10.20
2023-05-16T01:05:30.580Z,10.20
2023-05-16T01:06:01.582Z,10.20
2023-05-16T01:06:32.421Z,10.20
2023-05-16T01:07:03.639Z,10.20
2023-05-16T01:07:34.300Z,10.30
2023-05-16T01:08:06.105Z,10.30
2023-05-16T01:08:36.726Z,10.30
2023-05-16T01:09:07.654Z,10.30
2023-05-16T01:09:38.165Z,10.30
2023-05-16T01:10:52.179Z,10.30
2023-05-16T01:11:11.930Z,10.40
2023-05-16T01:11:45.232Z,10.40
2023-05-16T01:12:13.875Z,10.50
2023-05-16T01:12:44.581Z,10.50
2023-05-16T01:13:16.144Z,10.50
2023-05-16T01:13:46.695Z,10.60
2023-05-16T01:14:17.468Z,10.60
2023-05-16T01:14:48.550Z,10.60
2023-05-16T01:15:19.382Z,10.60
2023-05-16T01:15:54.059Z,10.70
2023-05-16T01:16:21.867Z,10.70
2023-05-16T01:16:52.708Z,10.70
2023-05-16T01:17:23.918Z,10.70
2023-05-16T01:17:54.783Z,10.80
2023-05-16T01:18:25.684Z,10.80
2023-05-16T01:18:57.100Z,10.80
2023-05-16T01:19:27.743Z,10.80
2023-05-16T01:20:29.671Z,10.90
2023-05-16T01:21:00.732Z,10.90
2023-05-16T01:21:32.376Z,10.90
2023-05-16T01:22:02.886Z,10.90
2023-05-16T01:22:34.109Z,10.90
2023-05-16T01:23:04.979Z,10.90
2023-05-16T01:23:38.144Z,11.00
2023-05-16T01:24:07.841Z,11.00
2023-05-16T01:24:38.711Z,11.00
2023-05-16T01:25:09.168Z,11.00
2023-05-16T01:25:40.581Z,11.00
2023-05-16T01:26:10.773Z,11.00
2023-05-16T01:26:42.030Z,11.00
2023-05-16T01:27:43.885Z,11.00
2023-05-16T01:28:15.514Z,11.10
2023-05-16T01:28:46.265Z,11.10
2023-05-16T01:29:17.523Z,11.10
2023-05-16T01:29:49.186Z,11.10
2023-05-16T01:30:18.798Z,11.10
2023-05-16T01:31:20.970Z,11.10
2023-05-16T01:31:51.589Z,11.10
2023-05-16T01:32:22.658Z,11.10
2023-05-16T01:33:11.307Z,11.10
2023-05-16T01:33:25.207Z,11.10
2023-05-16T01:34:05.884Z,11.10
2023-05-16T01:34:26.479Z,11.10
2023-05-16T01:34:57.644Z,11.10
2023-05-16T01:35:28.878Z,11.10
2023-05-16T01:35:59.747Z,11.10
2023-05-16T01:36:30.343Z,11.10
2023-05-16T01:37:01.556Z,11.10
2023-05-16T01:37:32.969Z,11.10
2023-05-16T01:38:04.122Z,11.10
2023-05-16T01:38:35.289Z,11.10
2023-05-16T01:39:06.219Z,11.10
2023-05-16T01:39:48.202Z,11.10
2023-05-16T01:40:08.618Z,11.10
2023-05-16T01:40:39.347Z,11.10
2023-05-16T01:41:09.808Z,11.10
2023-05-16T01:41:41.105Z,11.10
2023-05-16T01:42:11.836Z,11.00
2023-05-16T01:43:23.266Z,11.00
2023-05-16T01:43:44.618Z,11.00
2023-05-16T01:44:15.813Z,11.00
2023-05-16T01:44:46.922Z,11.00
2023-05-16T01:45:17.851Z,11.00
2023-05-16T01:45:48.498Z,11.00
2023-05-16T01:46:19.589Z,11.00
2023-05-16T01:46:50.802Z,11.00
2023-05-16T01:47:22.202Z,11.00
2023-05-16T01:47:52.508Z,11.00
2023-05-16T01:48:23.849Z,11.00
2023-05-16T01:48:54.959Z,11.00
2023-05-16T01:49:26.230Z,11.00
2023-05-16T01:49:56.833Z,11.00
2023-05-16T01:50:27.508Z,11.00
2023-05-16T01:51:16.557Z,11.00
2023-05-16T01:51:47.009Z,10.90
2023-05-16T01:52:00.689Z,10.90
2023-05-16T01:52:32.008Z,10.90
2023-05-16T01:53:03.020Z,10.90
2023-05-16T01:53:33.615Z,10.90
2023-05-16T01:54:04.929Z,10.90
2023-05-16T01:54:35.859Z,10.90
2023-05-16T01:55:07.922Z,10.90
2023-05-16T01:55:38.027Z,10.80
2023-05-16T01:56:09.210Z,10.80
2023-05-16T01:56:39.832Z,10.80
2023-05-16T01:57:11.415Z,10.80
2023-05-16T01:57:41.809Z,10.80
2023-05-16T01:58:12.721Z,10.80
2023-05-16T01:58:44.415Z,10.80
2023-05-16T01:59:14.913Z,10.70
2023-05-16T01:59:46.128Z,10.70
2023-05-16T02:00:19.111Z,10.70
2023-05-16T02:00:48.264Z,10.60
2023-05-16T02:01:18.616Z,10.60
2023-05-16T02:01:54.551Z,10.50
2023-05-16T02:02:20.789Z,10.50
2023-05-16T02:02:51.862Z,10.50
2023-05-16T02:03:42.497Z,10.50
2023-05-16T02:03:54.104Z,10.50
2023-05-16T02:04:24.984Z,10.40
2023-05-16T02:05:20.150Z,10.40
2023-05-16T02:05:27.477Z,10.40
2023-05-16T02:05:57.542Z,10.40
2023-05-16T02:06:28.594Z,10.40
2023-05-16T02:07:21.296Z,10.40
2023-05-16T02:07:30.585Z,10.40
2023-05-16T02:08:32.875Z,10.40
2023-05-16T02:09:04.026Z,10.30
2023-05-16T02:09:35.045Z,10.30
2023-05-16T02:10:06.699Z,10.30
2023-05-16T02:10:37.251Z,10.30
2023-05-16T02:11:08.465Z,10.30
2023-05-16T02:11:39.315Z,10.30
2023-05-16T02:12:10.040Z,10.30
2023-05-16T02:12:46.319Z,10.30
2023-05-16T02:13:11.776Z,10.20
2023-05-16T02:13:42.853Z,10.20
2023-05-16T02:14:14.213Z,10.20
2023-05-16T02:14:44.974Z,10.20
2023-05-16T02:15:16.645Z,10.20
2023-05-16T02:15:46.865Z,10.20
2023-05-16T02:16:17.432Z,10.20
2023-05-16T02:16:48.897Z,10.20
2023-05-16T02:17:19.513Z,10.20
2023-05-16T02:17:50.985Z,10.10
2023-05-16T02:18:21.459Z,10.10
2023-05-16T02:18:52.872Z,10.10
2023-05-16T02:19:24.036Z,10.10
2023-05-16T02:19:55.228Z,10.10
2023-05-16T02:20:26.269Z,10.00
2023-05-16T02:20:57.482Z,10.00
2023-05-16T02:21:27.880Z,10.00
2023-05-16T02:21:59.217Z,10.00
2023-05-16T02:22:29.917Z,9.90
2023-05-16T02:23:01.486Z,9.90
2023-05-16T02:23:33.101Z,9.90
2023-05-16T02:24:03.017Z,9.90
2023-05-16T02:24:33.797Z,9.90
2023-05-16T02:25:05.587Z,9.80
2023-05-16T02:25:36.049Z,9.80
2023-05-16T02:26:07.136Z,9.80
2023-05-16T02:26:38.873Z,9.80
2023-05-16T02:27:09.118Z,9.80
2023-05-16T02:27:40.619Z,9.80
2023-05-16T02:28:11.263Z,9.70
2023-05-16T02:28:59.225Z,9.70
2023-05-16T02:29:13.112Z,9.70
2023-05-16T02:29:43.683Z,9.70
2023-05-16T02:30:16.141Z,9.70
2023-05-16T02:30:46.470Z,9.70
2023-05-16T02:31:16.901Z,9.70
2023-05-16T02:31:47.870Z,9.70
2023-05-16T02:32:19.043Z,9.70
2023-05-16T02:32:50.013Z,9.70
2023-05-16T02:33:21.739Z,9.70
2023-05-16T02:33:52.309Z,9.60
2023-05-16T02:34:23.123Z,9.60
2023-05-16T02:34:53.751Z,9.60
2023-05-16T02:35:24.920Z,9.60
2023-05-16T02:35:55.954Z,9.60
2023-05-16T02:36:27.158Z,9.60
2023-05-16T02:36:57.837Z,9.60
2023-05-16T02:37:28.744Z,9.60
2023-05-16T02:37:59.762Z,9.60
2023-05-16T02:38:31.216Z,9.60
2023-05-16T02:39:02.246Z,9.60
2023-05-16T02:39:32.907Z,9.50
2023-05-16T02:40:35.029Z,9.50
2023-05-16T02:41:06.359Z,9.50
2023-05-16T02:41:37.349Z,9.50
2023-05-16T02:42:08.350Z,9.50
2023-05-16T02:42:39.051Z,9.40
2023-05-16T02:43:10.220Z,9.40
2023-05-16T02:43:40.960Z,9.40
2023-05-16T02:44:12.320Z,9.40
2023-05-16T02:44:42.876Z,9.40
2023-05-16T02:45:14.900Z,9.40
2023-05-16T02:45:45.189Z,9.30
2023-05-16T02:46:16.294Z,9.30
2023-05-16T02:46:47.182Z,9.30
2023-05-16T02:47:17.907Z,9.30
2023-05-16T02:47:49.057Z,9.30
2023-05-16T02:48:19.949Z,9.30
2023-05-16T02:48:51.138Z,9.20
2023-05-16T02:49:53.167Z,9.20
2023-05-16T02:50:24.330Z,9.20
2023-05-16T02:56:05.437Z,9.00
2023-05-16T02:56:36.219Z,9.00
2023-05-16T02:57:07.933Z,8.90
2023-05-16T02:57:38.294Z,8.90
2023-05-16T02:58:39.774Z,8.90
2023-05-16T02:59:11.697Z,8.90
2023-05-16T02:59:42.102Z,8.90
2023-05-16T03:00:15.109Z,8.90
2023-05-16T03:00:44.221Z,8.90
2023-05-16T03:01:15.447Z,8.80
2023-05-16T03:01:46.429Z,8.80
2023-05-16T03:02:17.240Z,8.80
2023-05-16T03:02:48.263Z,8.80
2023-05-16T03:03:18.970Z,8.80
2023-05-16T03:03:50.309Z,8.70
2023-05-16T03:04:21.396Z,8.70
2023-05-16T03:04:52.895Z,8.70
2023-05-16T03:05:24.765Z,8.70
2023-05-16T03:05:53.824Z,8.70
2023-05-16T03:06:25.976Z,8.70
2023-05-16T03:06:56.387Z,8.60
2023-05-16T03:07:27.331Z,8.60
2023-05-16T03:08:05.408Z,8.60
2023-05-16T03:08:29.358Z,8.60
2023-05-16T03:08:59.954Z,8.60
2023-05-16T03:09:31.637Z,8.50
2023-05-16T03:10:02.759Z,8.50
2023-05-16T03:10:33.075Z,8.50
2023-05-16T03:11:03.765Z,8.50
2023-05-16T03:11:36.852Z,8.50
2023-05-16T03:12:07.072Z,8.40
2023-05-16T03:12:41.919Z,8.40
2023-05-16T03:13:08.360Z,8.40
2023-05-16T03:13:38.931Z,8.40
2023-05-16T03:14:10.199Z,8.40
2023-05-16T03:14:41.593Z,8.40
2023-05-16T03:15:12.858Z,8.40
2023-05-16T03:15:43.480Z,8.40
2023-05-16T03:16:14.303Z,8.30
2023-05-16T03:16:45.179Z,8.30
2023-05-16T03:17:16.719Z,8.30
2023-05-16T03:17:47.090Z,8.30
2023-05-16T03:18:18.237Z,8.30
2023-05-16T03:18:49.026Z,8.30
2023-05-16T03:19:20.807Z,8.30
2023-05-16T03:19:51.669Z,8.30
2023-05-16T03:20:22.667Z,8.30
2023-05-16T03:20:53.389Z,8.30
2023-05-16T03:21:24.596Z,8.30
2023-05-16T03:21:55.599Z,8.30
2023-05-16T03:22:26.895Z,8.30
2023-05-16T03:23:00.130Z,8.20
2023-05-16T03:23:27.919Z,8.20
2023-05-16T03:23:59.070Z,8.20
2023-05-16T03:24:29.824Z,8.20
2023-05-16T03:25:01.438Z,8.20
2023-05-16T03:25:32.086Z,8.20
2023-05-16T03:26:03.101Z,8.20
2023-05-16T03:26:34.017Z,8.20
2023-05-16T03:27:05.212Z,8.20
2023-05-16T03:27:36.356Z,8.20
2023-05-16T03:28:07.607Z,8.20
2023-05-16T03:28:38.479Z,8.10
2023-05-16T03:29:09.198Z,8.10
2023-05-16T03:29:40.680Z,8.10
2023-05-16T03:30:12.346Z,8.10
2023-05-16T03:30:42.829Z,8.10
2023-05-16T03:31:13.136Z,8.10
2023-05-16T03:31:44.404Z,8.10
2023-05-16T03:32:15.862Z,8.10
2023-05-16T03:32:47.115Z,8.10
2023-05-16T03:33:17.704Z,8.10
2023-05-16T03:33:48.160Z,8.10
2023-05-16T03:34:54.443Z,8.10
2023-05-16T03:35:08.146Z,8.10
2023-05-16T03:35:21.376Z,8.10
2023-05-16T03:35:52.321Z,8.10
2023-05-16T03:36:23.295Z,8.10
2023-05-16T03:36:54.489Z,8.10
2023-05-16T03:37:26.265Z,8.10
2023-05-16T03:37:56.864Z,8.10
2023-05-16T03:38:28.125Z,8.10
2023-05-16T03:38:58.893Z,8.10
2023-05-16T03:39:29.321Z,8.10
2023-05-16T03:40:00.433Z,8.10
2023-05-16T03:40:31.431Z,8.10
2023-05-16T03:41:02.555Z,8.10
2023-05-16T03:41:33.436Z,8.10
2023-05-16T03:42:04.279Z,8.10
2023-05-16T03:43:06.588Z,8.20
2023-05-16T03:43:38.642Z,8.20
2023-05-16T03:44:09.154Z,8.20
2023-05-16T03:44:39.205Z,8.30
2023-05-16T03:45:12.056Z,8.30
2023-05-16T03:45:41.366Z,8.30
2023-05-16T03:46:12.390Z,8.30
2023-05-16T03:46:43.286Z,8.30
2023-05-16T03:47:14.871Z,8.30
2023-05-16T03:47:45.315Z,8.40
2023-05-16T03:48:16.797Z,8.40
2023-05-16T03:48:47.599Z,8.40
2023-05-16T03:49:18.167Z,8.40
2023-05-16T03:49:49.193Z,8.40
2023-05-16T03:50:20.811Z,8.50
2023-05-16T03:50:51.625Z,8.50
2023-05-16T03:51:22.902Z,8.50
2023-05-16T03:51:53.455Z,8.50
2023-05-16T03:52:24.733Z,8.60
2023-05-16T03:53:12.744Z,8.60
2023-05-16T03:53:26.946Z,8.60
2023-05-16T03:53:57.670Z,8.60
2023-05-16T03:54:28.405Z,8.60
2023-05-16T03:54:59.543Z,8.60
2023-05-16T03:55:30.268Z,8.60
2023-05-16T03:56:01.425Z,8.70
2023-05-16T03:56:32.641Z,8.70
2023-05-16T03:57:04.092Z,8.70
2023-05-16T03:57:34.353Z,8.70
2023-05-16T03:58:05.630Z,8.70
2023-05-16T03:58:36.636Z,8.70
2023-05-16T03:59:08.224Z,8.80
2023-05-16T03:59:38.826Z,8.80
2023-05-16T04:00:09.675Z,8.80
2023-05-16T04:00:40.329Z,8.80
2023-05-16T04:01:12.000Z,8.80
2023-05-16T04:01:42.568Z,8.80
2023-05-16T04:02:14.177Z,8.80
2023-05-16T04:02:44.238Z,8.80
2023-05-16T04:03:15.750Z,8.90
2023-05-16T04:03:46.816Z,8.90
2023-05-16T04:04:17.486Z,8.90
2023-05-16T04:04:48.280Z,8.90
2023-05-16T04:05:19.501Z,8.90
2023-05-16T04:05:50.463Z,9.00
2023-05-16T04:06:21.690Z,9.00
2023-05-16T04:06:52.284Z,9.00
2023-05-16T04:07:24.038Z,9.00
2023-05-16T04:07:54.409Z,9.00
2023-05-16T04:08:25.198Z,9.00
2023-05-16T04:08:56.853Z,9.00
2023-05-16T04:09:27.868Z,9.10
2023-05-16T04:09:58.758Z,9.10
2023-05-16T04:10:29.912Z,9.10
2023-05-16T04:11:00.072Z,9.10
2023-05-16T04:11:31.143Z,9.10
2023-05-16T04:12:02.797Z,9.10
2023-05-16T04:12:33.892Z,9.10
2023-05-16T04:13:04.380Z,9.10
2023-05-16T04:13:35.484Z,9.10
2023-05-16T04:14:06.727Z,9.10
2023-05-16T04:14:37.879Z,9.10
2023-05-16T04:15:09.605Z,9.10
2023-05-16T04:15:39.582Z,9.10
2023-05-16T04:16:10.410Z,9.20
2023-05-16T04:16:42.267Z,9.20
2023-05-16T04:17:12.432Z,9.20
2023-05-16T04:17:43.278Z,9.20
2023-05-16T04:18:14.501Z,9.20
2023-05-16T04:18:45.823Z,9.20
2023-05-16T04:19:17.210Z,9.20
2023-05-16T04:19:47.535Z,9.20
2023-05-16T04:20:18.579Z,9.20
2023-05-16T04:20:49.432Z,9.20
2023-05-16T04:21:20.134Z,9.20
2023-05-16T04:21:51.388Z,9.20
2023-05-16T04:22:23.214Z,9.20
2023-05-16T04:22:53.850Z,9.20
2023-05-16T04:23:24.987Z,9.20
2023-05-16T04:23:55.436Z,9.20
2023-05-16T04:24:26.561Z,9.20
2023-05-16T04:25:28.734Z,9.20
2023-05-16T04:25:59.457Z,9.30
2023-05-16T04:26:30.385Z,9.30
2023-05-16T04:27:01.581Z,9.30
2023-05-16T04:27:32.545Z,9.30
2023-05-16T04:28:03.883Z,9.30
2023-05-16T04:28:34.240Z,9.30
2023-05-16T04:29:05.532Z,9.30
2023-05-16T04:29:37.091Z,9.30
2023-05-16T04:30:08.918Z,9.30
2023-05-16T04:30:38.808Z,9.30
2023-05-16T04:31:10.110Z,9.30
2023-05-16T04:31:40.751Z,9.30
2023-05-16T04:32:11.509Z,9.30
2023-05-16T04:32:43.562Z,9.30
2023-05-16T04:33:13.517Z,9.30
2023-05-16T04:33:45.246Z,9.30
2023-05-16T04:34:15.685Z,9.30
2023-05-16T04:34:47.048Z,9.30
2023-05-16T04:35:17.728Z,9.30
2023-05-16T04:35:49.249Z,9.30
2023-05-16T04:36:19.265Z,9.30
2023-05-16T04:36:50.942Z,9.40
2023-05-16T04:37:21.735Z,9.40
2023-05-16T04:37:52.578Z,9.40
2023-05-16T04:38:24.003Z,9.40
2023-05-16T04:38:54.100Z,9.40
2023-05-16T04:39:25.872Z,9.40
2023-05-16T04:39:57.087Z,9.40
2023-05-16T04:40:28.335Z,9.40
2023-05-16T04:40:58.268Z,9.40
2023-05-16T04:41:29.641Z,9.40
2023-05-16T04:42:00.645Z,9.40
2023-05-16T04:42:32.520Z,9.30
2023-05-16T04:43:03.088Z,9.30
2023-05-16T04:43:33.683Z,9.40
2023-05-16T04:44:13.107Z,9.40
2023-05-16T04:44:37.032Z,9.40
2023-05-16T04:45:07.869Z,9.40
2023-05-16T04:46:08.621Z,9.40
2023-05-16T04:46:39.663Z,9.40
2023-05-16T04:47:11.214Z,9.40
2023-05-16T04:47:41.382Z,9.40
2023-05-16T04:48:12.676Z,9.40
2023-05-16T04:48:43.220Z,9.40
2023-05-16T04:49:14.829Z,9.40
2023-05-16T04:49:45.735Z,9.40
2023-05-16T04:50:18.889Z,9.40
2023-05-16T04:50:47.578Z,9.40
2023-05-16T04:51:18.637Z,9.40
2023-05-16T04:51:49.452Z,9.40
2023-05-16T04:52:20.484Z,9.40
2023-05-16T04:52:51.857Z,9.40
2023-05-16T04:53:23.139Z,9.40
2023-05-16T04:53:53.682Z,9.40
2023-05-16T04:54:24.325Z,9.40
2023-05-16T04:54:55.755Z,9.40
2023-05-16T04:55:27.554Z,9.40
2023-05-16T04:56:14.896Z,9.40
2023-05-16T04:56:28.700Z,9.40
2023-05-16T04:56:59.650Z,9.40
2023-05-16T04:57:30.428Z,9.40
2023-05-16T04:58:01.418Z,9.40
2023-05-16T04:58:32.592Z,9.40
2023-05-16T04:59:03.620Z,9.40
2023-05-16T04:59:34.820Z,9.40
2023-05-16T05:00:06.991Z,9.40
2023-05-16T05:00:37.172Z,9.40
2023-05-16T05:01:08.224Z,9.40
2023-05-16T05:01:38.812Z,9.40
2023-05-16T05:02:09.498Z,9.40
2023-05-16T05:02:40.766Z,9.40
2023-05-16T05:03:11.724Z,9.40
2023-05-16T05:03:42.733Z,9.40
2023-05-16T05:04:14.712Z,9.40
2023-05-16T05:04:44.687Z,9.40
2023-05-16T05:05:15.434Z,9.40
2023-05-16T05:05:46.739Z,9.40
2023-05-16T05:06:17.454Z,9.40
2023-05-16T05:06:49.089Z,9.40
2023-05-16T05:07:19.675Z,9.40
2023-05-16T05:07:50.476Z,9.40
2023-05-16T05:08:21.467Z,9.40
2023-05-16T05:08:52.505Z,9.40
2023-05-16T05:09:23.746Z,9.40
2023-05-16T05:09:54.811Z,9.40
2023-05-16T05:10:28.912Z,9.40
2023-05-16T05:10:56.947Z,9.40
2023-05-16T05:11:58.548Z,9.40
2023-05-16T05:13:10.096Z,9.40
2023-05-16T05:13:31.536Z,9.40
2023-05-16T05:14:14.453Z,9.40
2023-05-16T05:14:33.883Z,9.40
2023-05-16T05:15:06.040Z,9.40
2023-05-16T05:15:36.368Z,9.40
2023-05-16T05:16:07.121Z,9.40
2023-05-16T05:16:38.359Z,9.40
2023-05-16T05:17:08.641Z,9.40
2023-05-16T05:17:39.408Z,9.40
2023-05-16T05:18:10.550Z,9.40
2023-05-16T05:18:41.561Z,9.40
2023-05-16T05:19:12.830Z,9.40
2023-05-16T05:19:43.772Z,9.40
2023-05-16T05:20:15.353Z,9.40
2023-05-16T05:21:36.955Z,9.40
2023-05-16T05:21:56.057Z,9.40
2023-05-16T05:22:18.460Z,9.40
2023-05-16T05:23:01.721Z,9.40
2023-05-16T05:23:20.582Z,9.40
2023-05-16T05:23:51.759Z,9.40
2023-05-16T05:24:26.522Z,9.40
2023-05-16T05:24:53.391Z,9.40
2023-05-16T05:25:25.478Z,9.40
2023-05-16T05:26:06.344Z,9.40
2023-05-16T05:26:27.301Z,9.40
2023-05-16T05:26:57.603Z,9.40
2023-05-16T05:27:28.763Z,9.40
2023-05-16T05:28:23.680Z,9.40
2023-05-16T05:28:31.139Z,9.40
2023-05-16T05:29:13.913Z,9.40
2023-05-16T05:29:48.337Z,9.40
2023-05-16T05:30:27.648Z,9.40
2023-05-16T05:30:35.126Z,9.40
2023-05-16T05:31:05.787Z,9.40
2023-05-16T05:31:53.980Z,9.40
2023-05-16T05:32:07.847Z,9.40
2023-05-16T05:32:39.262Z,9.40
2023-05-16T05:33:09.366Z,9.40
2023-05-16T05:33:40.675Z,9.40
2023-05-16T05:34:11.831Z,9.40
2023-05-16T05:34:42.630Z,9.40
2023-05-16T05:35:14.413Z,9.40
2023-05-16T05:35:45.217Z,9.40
2023-05-16T05:36:15.528Z,9.40
2023-05-16T05:36:47.223Z,9.40
2023-05-16T05:37:17.922Z,9.40
2023-05-16T05:37:48.434Z,9.40
2023-05-16T05:38:19.705Z,9.40
2023-05-16T05:38:50.837Z,9.40
2023-05-16T05:39:33.152Z,9.40
2023-05-16T05:39:52.636Z,9.40
2023-05-16T05:40:41.416Z,9.40
2023-05-16T05:40:54.690Z,9.40
2023-05-16T05:41:26.122Z,9.40
2023-05-16T05:42:47.040Z,9.40
2023-05-16T05:43:04.891Z,9.40
2023-05-16T05:43:30.284Z,9.40
2023-05-16T05:44:00.945Z,9.40
2023-05-16T05:44:38.568Z,9.40
2023-05-16T05:45:03.589Z,9.40
2023-05-16T05:45:33.923Z,9.40
2023-05-16T05:47:22.842Z,9.40
2023-05-16T05:47:53.869Z,9.40
2023-05-16T05:48:09.529Z,9.40
2023-05-16T05:48:40.138Z,9.30
2023-05-16T05:49:10.925Z,9.30
2023-05-16T05:49:41.690Z,9.30
2023-05-16T05:50:13.272Z,9.30
2023-05-16T05:50:43.734Z,9.30
2023-05-16T05:51:15.096Z,9.30
2023-05-16T05:51:45.813Z,9.30
2023-05-16T05:52:17.223Z,9.30
2023-05-16T05:52:48.105Z,9.30
2023-05-16T05:53:18.873Z,9.30
2023-05-16T05:53:49.573Z,9.30
2023-05-16T05:54:22.266Z,9.30
2023-05-16T05:54:52.082Z,9.30
2023-05-16T05:55:22.967Z,9.30
2023-05-16T05:55:54.306Z,9.30
2023-05-16T05:56:25.357Z,9.30
2023-05-16T05:56:55.930Z,9.30
2023-05-16T05:57:27.489Z,9.30
2023-05-16T05:57:57.830Z,9.30
2023-05-16T05:58:29.281Z,9.30
2023-05-16T05:58:59.767Z,9.30
2023-05-16T05:59:31.722Z,9.30
2023-05-16T06:00:02.679Z,9.30
2023-05-16T06:00:33.118Z,9.30
2023-05-16T06:01:03.863Z,9.30
2023-05-16T06:01:34.660Z,9.30
2023-05-16T06:02:06.448Z,9.30
2023-05-16T06:02:37.243Z,9.30
2023-05-16T06:03:08.509Z,9.30
2023-05-16T06:03:38.814Z,9.30
2023-05-16T06:04:10.307Z,9.30
2023-05-16T06:04:40.662Z,9.30
2023-05-16T06:05:12.347Z,9.30
2023-05-16T06:05:43.576Z,9.30
2023-05-16T06:06:14.147Z,9.30
2023-05-16T06:06:45.024Z,9.30
2023-05-16T06:07:17.275Z,9.30
2023-05-16T06:07:47.202Z,9.30
2023-05-16T06:08:18.414Z,9.30
2023-05-16T06:08:53.750Z,9.30
2023-05-16T06:09:20.513Z,9.30
2023-05-16T06:09:51.223Z,9.30
2023-05-16T06:10:22.999Z,9.30
2023-05-16T06:10:52.711Z,9.30
2023-05-16T06:11:23.591Z,9.30
2023-05-16T06:11:54.962Z,9.30
2023-05-16T06:12:37.922Z,9.30
2023-05-16T06:12:57.083Z,9.30
2023-05-16T06:13:27.758Z,9.30
2023-05-16T06:13:59.217Z,9.30
2023-05-16T06:14:29.998Z,9.30
2023-05-16T06:15:01.675Z,9.30
2023-05-16T06:15:36.900Z,9.30
2023-05-16T06:16:02.982Z,9.40
2023-05-16T06:16:33.985Z,9.40
2023-05-16T06:17:05.128Z,9.40
2023-05-16T06:17:35.708Z,9.40
2023-05-16T06:18:07.166Z,9.40
2023-05-16T06:18:38.890Z,9.40
2023-05-16T06:19:09.416Z,9.40
2023-05-16T06:19:39.865Z,9.40
2023-05-16T06:20:11.843Z,9.50
2023-05-16T06:20:41.787Z,9.50
2023-05-16T06:21:13.566Z,9.50
2023-05-16T06:21:43.811Z,9.50
2023-05-16T06:22:14.690Z,9.50
2023-05-16T06:22:46.182Z,9.50
2023-05-16T06:23:19.260Z,9.50
2023-05-16T06:23:48.415Z,9.50
2023-05-16T06:24:18.944Z,9.50
2023-05-16T06:24:49.692Z,9.50
2023-05-16T06:25:21.619Z,9.50
2023-05-16T06:25:51.542Z,9.60
2023-05-16T06:26:23.474Z,9.60
2023-05-16T06:26:54.112Z,9.60
2023-05-16T06:27:25.079Z,9.60
2023-05-16T06:27:56.035Z,9.60
2023-05-16T06:28:27.025Z,9.60
2023-05-16T06:28:57.935Z,9.70
2023-05-16T06:29:46.417Z,9.70
2023-05-16T06:30:00.218Z,9.70
2023-05-16T06:30:31.230Z,9.70
2023-05-16T06:31:02.053Z,9.70
2023-05-16T06:31:33.083Z,9.70
2023-05-16T06:32:04.149Z,9.70
2023-05-16T06:32:34.970Z,9.80
2023-05-16T06:33:06.079Z,9.80
2023-05-16T06:33:37.050Z,9.80
2023-05-16T06:34:08.867Z,9.90
2023-05-16T06:34:39.021Z,9.90
2023-05-16T06:35:10.806Z,9.90
2023-05-16T06:35:40.990Z,9.90
2023-05-16T06:36:12.416Z,10.00
2023-05-16T06:36:43.020Z,10.00
2023-05-16T06:37:14.284Z,10.10
2023-05-16T06:37:45.243Z,10.10
2023-05-16T06:38:16.481Z,10.10
2023-05-16T06:38:48.278Z,10.20
2023-05-16T06:39:17.778Z,10.20
2023-05-16T06:40:07.047Z,10.30
2023-05-16T06:40:39.676Z,10.30
2023-05-16T06:40:50.634Z,10.30
2023-05-16T06:41:21.912Z,10.30
2023-05-16T06:41:55.632Z,10.30
2023-05-16T06:42:24.020Z,10.30
2023-05-16T06:42:54.842Z,10.40
2023-05-16T06:43:26.157Z,10.40
2023-05-16T06:43:57.193Z,10.40
2023-05-16T06:44:27.788Z,10.40
2023-05-16T06:44:58.612Z,10.50
2023-05-16T06:45:30.612Z,10.50
2023-05-16T06:46:01.030Z,10.50
2023-05-16T06:46:31.867Z,10.50
2023-05-16T06:47:03.024Z,10.50
2023-05-16T06:47:34.091Z,10.50
2023-05-16T06:48:05.275Z,10.50
2023-05-16T06:48:53.157Z,10.50
2023-05-16T06:49:07.422Z,10.50
2023-05-16T06:49:37.704Z,10.60
2023-05-16T06:50:09.506Z,10.60
2023-05-16T06:50:40.189Z,10.60
2023-05-16T06:51:11.192Z,10.60
2023-05-16T06:51:41.900Z,10.60
2023-05-16T06:52:12.939Z,10.60
2023-05-16T06:52:43.981Z,10.60
2023-05-16T06:53:15.518Z,10.60
2023-05-16T06:53:46.448Z,10.60
2023-05-16T06:54:17.166Z,10.60
2023-05-16T06:54:47.957Z,10.60
2023-05-16T06:55:49.836Z,10.60
2023-05-16T06:56:21.388Z,10.60
2023-05-16T06:56:52.116Z,10.60
2023-05-16T06:57:39.994Z,10.60
2023-05-16T06:57:54.165Z,10.60
2023-05-16T06:58:25.101Z,10.50
2023-05-16T06:58:55.960Z,10.50
2023-05-16T06:59:28.221Z,10.50
2023-05-16T06:59:57.993Z,10.50
2023-05-16T07:00:29.402Z,10.50
2023-05-16T07:01:00.119Z,10.50
2023-05-16T07:01:31.195Z,10.50
2023-05-16T07:02:01.693Z,10.50
2023-05-16T07:02:32.820Z,10.50
2023-05-16T07:03:04.046Z,10.40
2023-05-16T07:03:35.104Z,10.40
2023-05-16T07:04:06.214Z,10.40
2023-05-16T07:04:37.357Z,10.30
2023-05-16T07:05:08.466Z,10.30
2023-05-16T07:05:39.045Z,10.30
2023-05-16T07:06:10.567Z,10.30
2023-05-16T07:06:58.235Z,10.30
2023-05-16T07:07:12.030Z,10.30
2023-05-16T07:07:42.761Z,10.30
2023-05-16T07:08:14.044Z,10.30
2023-05-16T07:08:45.292Z,10.30
2023-05-16T07:09:15.819Z,10.20
2023-05-16T07:09:47.192Z,10.20
2023-05-16T07:10:36.546Z,10.20
2023-05-16T07:10:49.061Z,10.20
2023-05-16T07:11:20.146Z,10.20
2023-05-16T07:11:51.474Z,10.20
2023-05-16T07:12:21.899Z,10.20
2023-05-16T07:12:52.825Z,10.20
2023-05-16T07:13:55.392Z,10.20
2023-05-16T07:14:26.032Z,10.20
2023-05-16T07:14:57.379Z,10.20